Time;durP1;ratioP1;P1;durP2;ratioP2;P2;SDS_P1;SDS_P2;PMS_P1;PMS_P2;Temp;Humidity;BMP_temperature;BMP_pressure;BME280_temperature;BME280_humidity;BME280_pressure;Samples;Min_cycle;Max_cycle;Signal;HPM_P1;HPM_P2
2022/04/23 00:00:50;;;;;;;15.20;13.70;;;10.50;99.90;;;;;;4965958;28;21023;-90
2022/04/23 00:03:17;;;;;;;15.87;14.33;;;10.50;99.90;;;;;;4968711;28;20539;-90
2022/04/23 00:05:43;;;;;;;15.30;13.70;;;10.60;99.90;;;;;;4956946;28;20746;-91
2022/04/23 00:08:09;;;;;;;16.97;14.63;;;10.60;99.90;;;;;;4957689;28;20443;-90
2022/04/23 00:10:35;;;;;;;14.67;13.17;;;10.50;99.90;;;;;;4979608;28;20193;-91
2022/04/23 00:13:02;;;;;;;16.27;14.67;;;10.50;99.90;;;;;;4962507;28;20440;-90
2022/04/23 00:15:29;;;;;;;16.10;14.50;;;10.40;99.90;;;;;;4948923;28;20602;-91
2022/04/23 00:17:54;;;;;;;15.47;13.57;;;10.30;99.90;;;;;;4982186;28;20432;-90
2022/04/23 00:20:23;;;;;;;15.37;13.80;;;10.30;99.90;;;;;;4958178;28;20453;-91
2022/04/23 00:22:49;;;;;;;15.27;13.67;;;10.20;99.90;;;;;;4960682;28;20235;-91
2022/04/23 00:25:14;;;;;;;15.23;13.77;;;10.30;99.90;;;;;;4960927;28;20831;-90
2022/04/23 00:27:40;;;;;;;16.40;14.33;;;10.30;99.90;;;;;;4985098;28;20485;-91
2022/04/23 00:30:06;;;;;;;14.63;12.93;;;10.30;99.90;;;;;;4964693;28;20177;-91
2022/04/23 00:32:31;;;;;;;14.93;13.40;;;10.20;99.90;;;;;;4973664;28;20185;-90
2022/04/23 00:34:58;;;;;;;15.07;13.50;;;10.10;99.90;;;;;;4976235;28;20875;-90
2022/04/23 00:37:24;;;;;;;16.10;14.40;;;10.10;99.90;;;;;;4962146;28;21328;-90
2022/04/23 00:39:49;;;;;;;14.60;13.20;;;10.10;99.90;;;;;;4974578;28;20590;-92
2022/04/23 00:42:15;;;;;;;15.60;13.87;;;10.10;99.90;;;;;;4961255;28;20439;-91
2022/04/23 00:44:40;;;;;;;17.00;15.40;;;10.00;99.90;;;;;;4983953;28;20634;-91
2022/04/23 00:47:07;;;;;;;15.40;13.87;;;10.00;99.90;;;;;;4971300;28;20177;-91
2022/04/23 00:49:33;;;;;;;14.17;12.77;;;9.90;99.90;;;;;;4988525;28;20181;-92
2022/04/23 00:51:59;;;;;;;16.23;14.13;;;9.80;99.90;;;;;;4955228;28;20455;-91
2022/04/23 00:54:25;;;;;;;15.33;13.83;;;9.80;99.90;;;;;;4955819;28;20595;-92
2022/04/23 00:56:50;;;;;;;16.50;13.50;;;9.90;99.90;;;;;;4954153;28;20639;-92
2022/04/23 00:59:16;;;;;;;15.50;13.87;;;9.90;99.90;;;;;;4961881;28;20286;-91
2022/04/23 01:01:42;;;;;;;15.40;13.30;;;9.80;99.90;;;;;;4956253;28;20317;-91
2022/04/23 01:04:09;;;;;;;15.57;13.90;;;9.80;99.90;;;;;;4967592;28;20229;-90
2022/04/23 01:06:35;;;;;;;14.07;12.67;;;9.60;99.90;;;;;;4954935;28;20514;-90
2022/04/23 01:09:03;;;;;;;16.10;14.40;;;9.50;99.90;;;;;;4966694;28;20447;-90
2022/04/23 01:11:28;;;;;;;14.80;13.30;;;9.40;99.90;;;;;;4968458;28;20554;-90
2022/04/23 01:13:55;;;;;;;15.27;13.67;;;9.50;99.90;;;;;;4966792;28;21008;-90
2022/04/23 01:16:23;;;;;;;16.67;14.97;;;9.50;99.90;;;;;;4965749;28;20192;-89
2022/04/23 01:18:48;;;;;;;15.77;14.00;;;9.40;99.90;;;;;;4948076;28;21531;-91
2022/04/23 01:21:14;;;;;;;16.43;14.13;;;9.40;99.90;;;;;;4979657;28;20454;-90
2022/04/23 01:23:42;;;;;;;16.83;15.13;;;9.30;99.90;;;;;;4949193;28;21365;-90
2022/04/23 01:26:08;;;;;;;15.63;13.97;;;9.20;99.90;;;;;;4951372;28;20185;-91
2022/04/23 01:28:35;;;;;;;17.47;15.63;;;9.10;99.90;;;;;;4959417;28;20480;-91
2022/04/23 01:31:03;;;;;;;16.33;14.63;;;9.10;99.90;;;;;;4956101;28;20458;-91
2022/04/23 01:33:28;;;;;;;15.97;14.37;;;9.20;99.90;;;;;;4964186;28;20479;-91
2022/04/23 01:35:54;;;;;;;17.97;14.97;;;9.30;99.90;;;;;;4956313;28;20456;-90
2022/04/23 01:38:19;;;;;;;16.60;14.83;;;9.20;99.90;;;;;;4956583;28;20182;-91
2022/04/23 01:40:46;;;;;;;16.17;14.60;;;9.20;99.90;;;;;;4966661;28;20195;-91
2022/04/23 01:43:11;;;;;;;16.93;15.13;;;9.20;99.90;;;;;;4983038;28;20818;-91
2022/04/23 01:45:38;;;;;;;17.53;14.57;;;9.20;99.90;;;;;;4954901;28;20533;-90
2022/04/23 01:48:04;;;;;;;17.70;16.00;;;9.10;99.90;;;;;;4957314;28;20196;-90
2022/04/23 01:50:30;;;;;;;18.33;14.70;;;9.10;99.90;;;;;;4967997;28;20481;-90
2022/04/23 01:52:55;;;;;;;17.50;15.60;;;9.10;99.90;;;;;;4964387;28;20493;-91
2022/04/23 01:55:22;;;;;;;17.53;14.93;;;9.10;99.90;;;;;;4963879;28;20276;-91
2022/04/23 01:57:47;;;;;;;17.23;15.23;;;9.10;99.90;;;;;;4958705;28;20212;-90
2022/04/23 02:00:14;;;;;;;17.30;15.60;;;9.10;99.90;;;;;;4965058;28;20458;-90
2022/04/23 02:02:41;;;;;;;17.40;15.70;;;9.10;99.90;;;;;;4965968;28;20196;-91
2022/04/23 02:05:07;;;;;;;16.33;14.63;;;9.00;99.90;;;;;;4954353;28;20446;-90
2022/04/23 02:07:37;;;;;;;17.33;15.47;;;9.00;99.90;;;;;;4949207;28;20581;-90
2022/04/23 02:10:04;;;;;;;16.67;14.93;;;9.10;99.90;;;;;;4970703;28;21678;-90
2022/04/23 02:12:30;;;;;;;18.30;16.40;;;9.10;99.90;;;;;;4958153;28;20447;-90
2022/04/23 02:14:55;;;;;;;18.23;16.37;;;9.10;99.90;;;;;;4960454;28;20503;-91
2022/04/23 02:17:21;;;;;;;17.77;15.87;;;9.00;99.90;;;;;;4974374;28;20919;-90
2022/04/23 02:19:46;;;;;;;18.70;16.60;;;8.80;99.90;;;;;;4956916;28;20193;-90
2022/04/23 02:22:12;;;;;;;18.77;16.77;;;8.80;99.90;;;;;;4976541;28;20185;-91
2022/04/23 02:24:37;;;;;;;18.30;15.73;;;8.70;99.90;;;;;;4965841;28;21244;-90
2022/04/23 02:27:03;;;;;;;18.27;16.47;;;8.70;99.90;;;;;;4953030;28;21697;-91
2022/04/23 02:29:29;;;;;;;18.93;16.90;;;8.60;99.90;;;;;;4969041;28;20935;-90
2022/04/23 02:31:54;;;;;;;17.73;15.93;;;8.60;99.90;;;;;;4955529;28;20203;-90
2022/04/23 02:34:21;;;;;;;18.93;16.93;;;8.50;99.90;;;;;;4951481;28;20219;-91
2022/04/23 02:36:47;;;;;;;19.33;17.23;;;8.40;99.90;;;;;;4952445;28;20578;-89
2022/04/23 02:39:13;;;;;;;17.47;15.67;;;8.60;99.90;;;;;;4956732;28;20448;-90
2022/04/23 02:41:39;;;;;;;18.40;16.47;;;8.60;99.90;;;;;;4956057;28;20493;-91
2022/04/23 02:44:05;;;;;;;18.13;16.33;;;8.40;99.90;;;;;;4965226;28;20195;-90
2022/04/23 02:46:30;;;;;;;19.13;17.13;;;8.20;99.90;;;;;;4951875;28;20184;-90
2022/04/23 02:48:58;;;;;;;19.20;17.20;;;8.20;99.90;;;;;;4981525;28;20458;-91
2022/04/23 02:51:23;;;;;;;17.90;16.07;;;8.10;99.90;;;;;;4975977;28;20184;-91
2022/04/23 02:53:49;;;;;;;19.37;17.33;;;8.20;99.90;;;;;;4957850;28;20472;-90
2022/04/23 02:56:16;;;;;;;21.17;18.97;;;8.10;99.90;;;;;;4963879;28;20190;-89
2022/04/23 02:58:43;;;;;;;22.10;19.30;;;8.00;99.90;;;;;;4967064;28;20187;-89
2022/04/23 03:01:10;;;;;;;19.17;17.17;;;8.00;99.90;;;;;;4960923;28;20570;-89
2022/04/23 03:03:42;;;;;;;18.97;16.97;;;8.00;99.90;;;;;;4947713;28;20457;-89
2022/04/23 03:06:08;;;;;;;20.23;18.13;;;8.00;99.90;;;;;;4952174;28;20452;-91
2022/04/23 03:08:37;;;;;;;19.60;17.50;;;8.10;99.90;;;;;;4972162;28;21084;-91
2022/04/23 03:11:05;;;;;;;21.17;17.20;;;8.10;99.90;;;;;;4952584;28;20488;-91
2022/04/23 03:13:31;;;;;;;18.50;16.50;;;8.20;99.90;;;;;;4966955;28;20487;-92
2022/04/23 03:15:56;;;;;;;20.53;18.33;;;8.10;99.90;;;;;;4960035;28;21556;-91
2022/04/23 03:18:22;;;;;;;22.47;18.90;;;8.10;99.90;;;;;;4974029;28;20217;-89
2022/04/23 03:20:48;;;;;;;20.87;18.07;;;8.10;99.90;;;;;;4950345;28;21551;-90
2022/04/23 03:23:13;;;;;;;19.70;17.50;;;8.00;99.90;;;;;;4969858;28;20438;-89
2022/04/23 03:25:40;;;;;;;21.67;18.87;;;7.90;99.90;;;;;;4952167;28;20194;-90
2022/04/23 03:28:06;;;;;;;19.07;17.07;;;7.80;99.90;;;;;;4985584;28;20186;-92
2022/04/23 03:30:32;;;;;;;22.67;18.17;;;7.70;99.90;;;;;;4965472;28;20490;-92
2022/04/23 03:32:59;;;;;;;20.20;17.90;;;7.60;99.90;;;;;;4958934;28;20182;-91
2022/04/23 03:35:26;;;;;;;21.17;17.73;;;7.50;99.90;;;;;;4967147;28;20239;-91
2022/04/23 03:37:52;;;;;;;21.47;18.93;;;7.60;99.90;;;;;;4956251;28;20435;-90
2022/04/23 03:40:17;;;;;;;22.87;18.27;;;7.40;99.90;;;;;;4951594;28;20538;-91
2022/04/23 03:42:48;;;;;;;19.17;17.03;;;7.50;99.90;;;;;;4980683;28;20227;-90
2022/04/23 03:45:14;;;;;;;21.30;17.67;;;7.50;99.90;;;;;;4966083;28;20193;-90
2022/04/23 03:47:44;;;;;;;22.10;19.70;;;7.40;99.90;;;;;;4987494;28;20785;-90
2022/04/23 03:50:10;;;;;;;23.23;19.83;;;7.40;99.90;;;;;;4960083;28;20459;-90
2022/04/23 03:52:35;;;;;;;24.23;21.30;;;7.50;99.90;;;;;;4993429;28;20958;-91
2022/04/23 03:55:02;;;;;;;23.37;19.50;;;7.50;99.90;;;;;;4983034;28;20356;-90
2022/04/23 03:57:31;;;;;;;21.30;18.90;;;7.50;99.90;;;;;;4979375;28;20762;-91
2022/04/23 03:59:56;;;;;;;24.27;19.83;;;7.60;99.90;;;;;;4960398;28;20456;-90
2022/04/23 04:02:22;;;;;;;19.57;16.80;;;7.60;99.90;;;;;;4982323;28;20469;-90
2022/04/23 04:04:50;;;;;;;19.90;16.93;;;7.60;99.90;;;;;;4963682;28;20204;-90
2022/04/23 04:07:19;;;;;;;21.20;17.90;;;7.50;99.90;;;;;;4955107;28;20436;-90
2022/04/23 04:09:45;;;;;;;21.50;17.57;;;7.50;99.90;;;;;;4962358;28;20189;-92
2022/04/23 04:12:11;;;;;;;21.03;18.63;;;7.40;99.90;;;;;;4961616;28;20440;-92
2022/04/23 04:14:37;;;;;;;21.37;18.37;;;7.40;99.90;;;;;;4960350;28;20477;-90
2022/04/23 04:17:07;;;;;;;24.10;19.20;;;7.50;99.90;;;;;;4982516;28;20579;-91
2022/04/23 04:19:33;;;;;;;20.93;17.90;;;7.40;99.90;;;;;;4985981;28;20794;-90
2022/04/23 04:21:59;;;;;;;21.73;18.40;;;7.50;99.90;;;;;;4953704;28;21149;-90
2022/04/23 04:24:26;;;;;;;21.30;19.00;;;7.50;99.90;;;;;;4956683;28;22269;-90
2022/04/23 04:26:52;;;;;;;22.93;18.93;;;7.50;99.90;;;;;;4975050;28;20442;-90
2022/04/23 04:29:18;;;;;;;22.17;18.43;;;7.50;99.90;;;;;;4985297;28;21193;-90
2022/04/23 04:31:47;;;;;;;22.07;19.17;;;7.60;99.90;;;;;;4960187;28;20805;-91
2022/04/23 04:34:24;;;;;;;19.60;17.37;;;7.70;99.90;;;;;;4956892;28;20482;-93
2022/04/23 04:36:50;;;;;;;20.30;16.73;;;7.80;99.90;;;;;;4960650;28;20448;-91
2022/04/23 04:39:17;;;;;;;19.37;17.13;;;7.90;99.90;;;;;;4963771;28;20450;-92
2022/04/23 04:41:43;;;;;;;20.20;17.43;;;7.90;99.90;;;;;;4973261;28;20452;-93
2022/04/23 04:44:11;;;;;;;21.40;17.00;;;8.00;99.90;;;;;;4991550;28;20447;-93
2022/04/23 04:46:38;;;;;;;21.73;18.40;;;8.00;99.90;;;;;;4973928;28;20173;-92
2022/04/23 04:49:04;;;;;;;20.30;17.30;;;8.00;99.90;;;;;;4969859;28;20525;-92
2022/04/23 04:51:31;;;;;;;19.77;17.67;;;8.10;99.90;;;;;;4998668;28;20503;-92
2022/04/23 04:53:57;;;;;;;21.80;18.87;;;8.20;99.90;;;;;;5003039;28;20504;-93
2022/04/23 04:56:23;;;;;;;19.93;16.50;;;8.20;99.90;;;;;;4968865;28;20449;-93
2022/04/23 04:58:49;;;;;;;19.40;16.70;;;8.30;99.90;;;;;;4988634;28;20481;-92
2022/04/23 05:01:15;;;;;;;20.37;17.00;;;8.50;99.90;;;;;;4978704;28;20472;-93
2022/04/23 05:03:41;;;;;;;19.30;16.43;;;8.60;99.90;;;;;;4975826;28;20771;-92
2022/04/23 05:06:10;;;;;;;20.70;18.07;;;8.70;99.90;;;;;;4977009;28;20601;-92
2022/04/23 05:08:37;;;;;;;21.07;18.37;;;8.70;99.90;;;;;;4980402;28;20188;-92
2022/04/23 05:11:04;;;;;;;19.40;16.80;;;8.70;99.90;;;;;;5003211;28;20472;-92
2022/04/23 05:13:30;;;;;;;17.97;15.97;;;8.70;99.90;;;;;;4992936;28;20451;-91
2022/04/23 05:15:56;;;;;;;18.13;16.13;;;8.80;99.90;;;;;;4979248;28;20581;-92
2022/04/23 05:18:22;;;;;;;18.20;16.00;;;8.90;99.90;;;;;;4976541;28;20243;-92
2022/04/23 05:20:48;;;;;;;18.60;16.60;;;9.00;99.90;;;;;;4976621;28;20469;-92
2022/04/23 05:23:13;;;;;;;18.27;16.00;;;9.10;99.90;;;;;;4993123;28;20887;-91
2022/04/23 05:25:39;;;;;;;18.90;15.70;;;9.20;99.90;;;;;;4977555;28;20180;-92
2022/04/23 05:28:05;;;;;;;17.20;15.40;;;9.10;99.90;;;;;;4989129;28;20195;-91
2022/04/23 05:30:31;;;;;;;18.43;16.23;;;9.20;99.90;;;;;;4972107;28;20203;-90
2022/04/23 05:32:56;;;;;;;16.50;14.77;;;9.30;99.90;;;;;;4975548;28;20264;-92
2022/04/23 05:35:22;;;;;;;20.10;15.33;;;9.20;99.90;;;;;;4968479;28;20314;-91
2022/04/23 05:37:47;;;;;;;17.53;15.73;;;9.30;99.90;;;;;;4967099;28;20196;-91
2022/04/23 05:40:13;;;;;;;17.40;15.60;;;9.40;99.90;;;;;;4962119;28;20189;-90
2022/04/23 05:42:38;;;;;;;19.33;16.60;;;9.50;99.90;;;;;;4955792;28;20199;-90
2022/04/23 05:45:05;;;;;;;18.57;15.77;;;9.60;99.90;;;;;;4975065;28;20200;-90
2022/04/23 05:47:30;;;;;;;17.00;14.80;;;9.60;99.90;;;;;;4961596;28;20215;-91
2022/04/23 05:50:01;;;;;;;18.70;15.80;;;9.80;99.90;;;;;;4957862;28;20502;-90
2022/04/23 05:52:35;;;;;;;16.13;14.43;;;9.90;99.90;;;;;;4967605;28;20189;-91
2022/04/23 05:55:01;;;;;;;17.20;15.40;;;9.80;99.90;;;;;;4949868;28;20573;-91
2022/04/23 05:57:28;;;;;;;16.17;14.43;;;9.90;99.90;;;;;;4974876;28;20451;-92
2022/04/23 05:59:55;;;;;;;16.73;13.70;;;10.00;99.90;;;;;;4966766;28;20189;-91
2022/04/23 06:02:21;;;;;;;15.97;14.27;;;10.10;99.90;;;;;;4948590;28;20978;-92
2022/04/23 06:04:48;;;;;;;14.60;13.10;;;10.30;99.90;;;;;;4954850;28;20448;-91
2022/04/23 06:07:14;;;;;;;16.07;14.37;;;10.30;99.90;;;;;;4951953;28;20213;-91
2022/04/23 06:09:39;;;;;;;15.47;13.80;;;10.10;99.90;;;;;;4962210;28;20452;-90
2022/04/23 06:12:05;;;;;;;15.30;13.80;;;10.30;99.90;;;;;;4959036;28;20303;-86
2022/04/23 06:14:37;;;;;;;15.07;13.47;;;10.50;99.90;;;;;;4953213;28;20248;-88
2022/04/23 06:17:24;;;;;;;16.70;14.40;;;10.70;99.90;;;;;;4975906;28;20204;-89
2022/04/23 06:19:53;;;;;;;14.87;13.37;;;10.70;99.90;;;;;;4974102;28;20452;-89
2022/04/23 06:22:30;;;;;;;15.40;13.80;;;10.60;99.90;;;;;;4969154;28;20483;-90
2022/04/23 06:25:13;;;;;;;15.80;12.97;;;10.50;99.90;;;;;;4977994;28;20193;-88
2022/04/23 06:27:39;;;;;;;14.47;13.07;;;10.40;99.90;;;;;;4947696;28;20690;-88
2022/04/23 06:30:08;;;;;;;14.13;12.33;;;10.40;99.90;;;;;;4959655;28;20494;-87
2022/04/23 06:32:35;;;;;;;13.37;12.07;;;10.40;99.90;;;;;;4948689;28;20233;-91
2022/04/23 06:35:03;;;;;;;13.97;12.53;;;10.40;99.90;;;;;;4959571;28;20853;-88
2022/04/23 06:37:36;;;;;;;13.03;11.67;;;10.50;99.90;;;;;;4961995;28;20463;-87
2022/04/23 06:40:05;;;;;;;15.83;12.60;;;10.60;99.90;;;;;;4947872;28;21178;-92
2022/04/23 06:42:31;;;;;;;13.20;11.90;;;10.60;99.90;;;;;;4957338;28;20455;-91
2022/04/23 06:44:56;;;;;;;11.73;10.53;;;10.70;99.90;;;;;;4952872;28;21075;-85
2022/04/23 06:47:22;;;;;;;11.43;10.30;;;10.90;99.90;;;;;;4945643;28;20998;-88
2022/04/23 06:49:47;;;;;;;10.60;9.60;;;10.90;99.90;;;;;;4967571;28;20177;-84
2022/04/23 06:52:13;;;;;;;11.47;10.33;;;10.90;99.90;;;;;;4945188;28;20215;-85
2022/04/23 06:54:38;;;;;;;11.60;10.50;;;11.00;99.90;;;;;;4946385;28;20397;-89
2022/04/23 06:57:04;;;;;;;10.47;9.47;;;11.00;99.90;;;;;;4972238;28;20228;-86
2022/04/23 06:59:29;;;;;;;10.13;9.13;;;11.20;99.90;;;;;;4988992;28;20184;-86
2022/04/23 07:02:01;;;;;;;11.20;10.10;;;11.40;99.90;;;;;;4957967;28;20189;-86
2022/04/23 07:04:28;;;;;;;9.90;9.00;;;11.40;99.90;;;;;;4967439;28;20643;-86
2022/04/23 07:06:54;;;;;;;11.10;10.03;;;11.20;99.90;;;;;;4946529;28;20471;-87
2022/04/23 07:09:19;;;;;;;10.93;9.83;;;11.10;99.90;;;;;;4940779;28;20447;-86
2022/04/23 07:11:45;;;;;;;9.80;8.90;;;11.20;99.90;;;;;;4947564;28;20272;-85
2022/04/23 07:14:11;;;;;;;10.63;9.63;;;11.30;99.90;;;;;;4949488;28;20216;-85
2022/04/23 07:16:36;;;;;;;10.87;9.87;;;11.30;99.90;;;;;;4950915;28;21068;-86
2022/04/23 07:19:04;;;;;;;11.57;10.37;;;11.20;99.90;;;;;;4946782;28;20177;-87
2022/04/23 07:21:32;;;;;;;10.77;9.67;;;11.30;99.90;;;;;;4955783;28;20232;-84
2022/04/23 07:24:04;;;;;;;12.40;11.20;;;11.20;99.90;;;;;;4947156;28;20473;-84
2022/04/23 07:26:31;;;;;;;11.00;9.90;;;11.20;99.90;;;;;;4943747;28;20443;-85
2022/04/23 07:28:57;;;;;;;12.03;10.87;;;11.10;99.90;;;;;;4947319;28;20456;-85
2022/04/23 07:31:23;;;;;;;12.47;11.27;;;11.30;99.90;;;;;;4962320;28;20901;-85
2022/04/23 07:39:21;;;;;;;12.00;10.90;;;11.50;99.90;;;;;;4970571;28;20470;-85
2022/04/23 07:41:47;;;;;;;12.33;11.13;;;11.60;99.90;;;;;;4956536;28;20444;-85
2022/04/23 07:44:12;;;;;;;11.83;10.73;;;11.50;99.90;;;;;;4959763;28;21044;-85
2022/04/23 07:46:39;;;;;;;11.00;9.90;;;11.40;99.90;;;;;;4965213;28;20196;-86
2022/04/23 07:49:07;;;;;;;12.73;11.43;;;11.40;99.90;;;;;;4954966;28;20323;-89
2022/04/23 07:51:37;;;;;;;13.43;11.73;;;11.50;99.90;;;;;;4983125;28;20515;-91
2022/04/23 07:54:04;;;;;;;11.93;10.73;;;11.40;99.90;;;;;;4969623;28;20702;-91
2022/04/23 07:56:30;;;;;;;12.63;11.43;;;11.40;99.90;;;;;;4963108;28;20454;-89
2022/04/23 07:58:56;;;;;;;11.53;10.40;;;11.60;99.90;;;;;;4948586;28;20451;-88
2022/04/23 08:01:21;;;;;;;12.30;10.90;;;11.60;99.90;;;;;;4948766;28;20455;-89
2022/04/23 08:03:47;;;;;;;12.73;10.33;;;11.70;99.90;;;;;;4949359;28;20192;-88
2022/04/23 08:06:13;;;;;;;10.67;9.57;;;11.70;99.90;;;;;;4956909;28;20193;-90
2022/04/23 08:08:39;;;;;;;12.53;11.20;;;12.00;99.90;;;;;;4964846;28;20196;-88
2022/04/23 08:11:06;;;;;;;12.20;11.00;;;12.20;99.90;;;;;;4961050;28;20946;-86
2022/04/23 08:13:32;;;;;;;13.00;11.73;;;12.30;99.90;;;;;;4963437;28;24103;-88
2022/04/23 08:15:59;;;;;;;11.77;10.67;;;12.50;99.90;;;;;;4969694;28;20559;-89
2022/04/23 08:18:26;;;;;;;11.83;10.73;;;12.60;99.90;;;;;;4964330;28;20195;-89
2022/04/23 08:20:59;;;;;;;13.13;11.83;;;12.70;99.90;;;;;;4979961;28;20460;-89
2022/04/23 08:23:25;;;;;;;15.33;13.73;;;12.80;99.90;;;;;;4974095;28;21232;-88
2022/04/23 08:25:55;;;;;;;12.10;11.00;;;13.00;99.90;;;;;;4964957;28;21297;-88
2022/04/23 08:31:05;;;;;;;13.47;12.07;;;12.80;99.90;;;;;;4990499;28;20459;-88
2022/04/23 08:36:14;;;;;;;13.73;12.33;;;12.50;99.90;;;;;;4979917;28;20214;-89
2022/04/23 08:38:59;;;;;;;12.83;11.40;;;12.30;99.90;;;;;;4962181;28;20979;-89
2022/04/23 08:41:29;;;;;;;13.80;12.40;;;12.10;99.90;;;;;;4964290;28;20450;-89
2022/04/23 08:44:05;;;;;;;11.97;10.77;;;12.20;99.90;;;;;;4962555;28;20525;-88
2022/04/23 08:46:35;;;;;;;12.87;11.57;;;12.00;99.90;;;;;;4947330;28;20525;-87
2022/04/23 08:49:16;;;;;;;12.83;11.43;;;12.00;99.90;;;;;;4969985;28;20448;-88
2022/04/23 08:51:45;;;;;;;13.47;12.07;;;11.90;99.90;;;;;;4971646;28;20451;-88
2022/04/23 08:54:13;;;;;;;12.10;10.93;;;12.00;99.90;;;;;;4952580;28;20507;-90
2022/04/23 08:56:41;;;;;;;12.50;11.20;;;12.20;99.90;;;;;;4968813;28;20932;-91
2022/04/23 08:59:08;;;;;;;13.13;11.70;;;12.20;99.90;;;;;;4968642;28;20543;-89
2022/04/23 09:01:35;;;;;;;12.90;11.57;;;12.20;99.90;;;;;;4960981;28;20569;-89
2022/04/23 09:04:02;;;;;;;15.60;12.87;;;12.20;99.90;;;;;;4957679;28;20771;-90
2022/04/23 09:06:39;;;;;;;12.33;11.13;;;12.20;99.90;;;;;;4960252;28;20559;-88
2022/04/23 09:09:22;;;;;;;13.37;12.07;;;12.40;99.90;;;;;;4957875;28;20558;-89
2022/04/23 09:11:52;;;;;;;11.90;10.70;;;12.20;99.90;;;;;;4950743;28;20506;-89
2022/04/23 09:14:24;;;;;;;11.90;10.70;;;12.20;99.90;;;;;;4973539;28;20479;-91
2022/04/23 09:25:10;;;;;;;11.87;10.60;;;12.20;99.90;;;;;;4979981;28;20450;-91
2022/04/23 09:27:37;;;;;;;12.20;10.90;;;12.20;99.90;;;;;;4987975;28;20442;-89
2022/04/23 09:30:07;;;;;;;13.03;11.70;;;12.30;99.90;;;;;;4971356;28;20447;-90
2022/04/23 09:32:34;;;;;;;12.53;11.23;;;12.30;99.90;;;;;;4959297;28;20444;-87
2022/04/23 09:35:07;;;;;;;13.70;10.80;;;12.30;99.90;;;;;;4977597;28;20573;-89
2022/04/23 09:40:27;;;;;;;12.77;11.13;;;12.50;99.90;;;;;;4972458;28;20486;-88
2022/04/23 09:43:04;;;;;;;11.57;9.47;;;12.50;99.90;;;;;;4967435;28;20691;-88
2022/04/23 09:45:30;;;;;;;12.50;10.00;;;12.70;99.90;;;;;;4980415;28;20491;-90
2022/04/23 09:48:03;;;;;;;10.10;9.10;;;12.70;99.90;;;;;;4968593;28;20464;-89
2022/04/23 09:50:39;;;;;;;10.20;9.20;;;12.80;99.90;;;;;;4951301;28;20443;-89
2022/04/23 09:53:16;;;;;;;10.80;9.67;;;12.80;99.90;;;;;;4949986;28;20924;-89
2022/04/23 09:55:42;;;;;;;10.20;9.20;;;13.00;99.90;;;;;;4970517;28;21023;-89
2022/04/23 09:58:10;;;;;;;11.10;10.00;;;13.20;99.90;;;;;;4980723;28;20527;-88
2022/04/23 10:00:38;;;;;;;12.67;10.00;;;13.50;99.90;;;;;;4961202;28;20450;-89
2022/04/23 10:03:06;;;;;;;10.27;9.23;;;13.50;99.90;;;;;;4961124;28;20599;-89
2022/04/23 10:05:56;;;;;;;12.10;10.87;;;13.30;99.90;;;;;;4958696;28;20555;-89
2022/04/23 10:08:27;;;;;;;10.80;9.70;;;13.10;99.90;;;;;;4961302;28;20483;-92
2022/04/23 10:11:26;;;;;;;10.00;9.00;;;13.00;99.90;;;;;;4974268;28;20440;-93
2022/04/23 10:13:59;;;;;;;12.47;10.53;;;13.30;99.90;;;;;;4971902;28;20518;-92
2022/04/23 10:16:44;;;;;;;11.63;10.43;;;13.30;99.90;;;;;;4965489;28;20440;-88
2022/04/23 10:19:10;;;;;;;11.63;10.43;;;13.20;99.90;;;;;;4947376;28;20496;-89
2022/04/23 10:21:53;;;;;;;11.57;9.67;;;13.40;99.90;;;;;;4946145;28;21017;-89
2022/04/23 10:24:35;;;;;;;10.77;9.53;;;13.50;99.90;;;;;;4935890;28;20456;-90
2022/04/23 10:27:10;;;;;;;11.00;9.90;;;13.80;99.90;;;;;;4984476;28;21521;-93
2022/04/23 10:29:46;;;;;;;12.57;10.47;;;13.90;99.90;;;;;;4981643;28;20454;-94
2022/04/23 10:32:14;;;;;;;13.40;10.67;;;13.80;99.90;;;;;;4954976;28;20477;-90
2022/04/23 10:34:40;;;;;;;11.97;10.87;;;13.60;99.90;;;;;;4963114;28;20464;-92
2022/04/23 10:37:27;;;;;;;10.80;9.80;;;13.70;99.90;;;;;;4968529;28;20450;-91
2022/04/23 10:39:55;;;;;;;11.47;10.27;;;13.70;99.90;;;;;;4963030;28;20477;-89
2022/04/23 10:42:25;;;;;;;11.43;10.23;;;13.80;99.90;;;;;;4958678;28;20435;-92
2022/04/23 10:44:55;;;;;;;12.30;11.10;;;13.70;99.90;;;;;;4950010;28;20455;-88
2022/04/23 10:47:32;;;;;;;11.23;10.10;;;13.40;99.90;;;;;;4951678;28;20440;-93
2022/04/23 10:50:13;;;;;;;12.33;11.03;;;13.30;99.90;;;;;;4952338;28;20534;-93
2022/04/23 10:52:39;;;;;;;11.60;10.40;;;13.20;99.90;;;;;;4952018;28;20502;-93
2022/04/23 10:55:06;;;;;;;11.20;10.10;;;13.40;99.90;;;;;;4976788;28;20491;-93
2022/04/23 10:57:39;;;;;;;12.30;10.23;;;13.60;99.90;;;;;;4974772;28;20494;-92
2022/04/23 11:00:20;;;;;;;10.53;9.50;;;13.60;99.90;;;;;;4991889;28;20526;-93
2022/04/23 11:02:53;;;;;;;11.43;10.33;;;13.60;99.90;;;;;;4976949;28;20450;-95
2022/04/23 11:14:47;;;;;;;12.00;10.80;;;13.40;99.90;;;;;;4982802;28;20645;-96
2022/04/23 11:17:21;;;;;;;10.50;8.50;;;13.30;99.90;;;;;;4978573;28;20459;-91
2022/04/23 11:19:53;;;;;;;10.23;9.23;;;13.70;99.90;;;;;;4960821;28;20933;-90
2022/04/23 11:22:20;;;;;;;11.07;9.97;;;14.10;99.90;;;;;;4960411;28;20443;-89
2022/04/23 11:24:48;;;;;;;12.57;10.10;;;14.10;99.90;;;;;;4978532;28;20441;-93
2022/04/23 11:27:38;;;;;;;10.87;9.77;;;14.00;99.90;;;;;;4959598;28;20440;-94
2022/04/23 11:30:28;;;;;;;11.03;9.90;;;13.90;99.90;;;;;;4957441;28;20534;-89
2022/04/23 11:32:54;;;;;;;11.70;9.30;;;13.80;99.90;;;;;;4979467;28;20577;-95
2022/04/23 11:35:29;;;;;;;10.93;9.90;;;13.80;99.90;;;;;;4967192;28;20988;-93
2022/04/23 11:37:59;;;;;;;9.90;8.90;;;13.80;99.90;;;;;;4987358;28;20180;-96
2022/04/23 11:40:28;;;;;;;13.07;11.67;;;13.90;99.90;;;;;;4989056;28;21065;-88
2022/04/23 11:42:54;;;;;;;10.37;9.33;;;13.90;99.90;;;;;;4965262;28;20452;-90
2022/04/23 11:45:20;;;;;;;10.73;9.73;;;13.80;99.90;;;;;;4959201;28;21818;-91
2022/04/23 11:47:46;;;;;;;11.27;10.17;;;14.10;99.90;;;;;;4973708;28;20189;-91
2022/04/23 11:50:16;;;;;;;11.50;10.03;;;14.20;99.90;;;;;;4963953;28;20498;-92
2022/04/23 11:52:47;;;;;;;11.30;10.00;;;14.10;99.90;;;;;;4944427;28;20271;-86
2022/04/23 11:55:24;;;;;;;11.40;10.30;;;14.00;99.90;;;;;;4970859;28;20552;-91
2022/04/23 11:58:00;;;;;;;10.70;9.60;;;14.00;99.90;;;;;;4972660;28;20455;-91
2022/04/23 12:00:27;;;;;;;13.77;10.20;;;14.20;99.90;;;;;;4994034;28;20578;-91
2022/04/23 12:02:54;;;;;;;12.53;11.33;;;14.20;99.90;;;;;;4976498;28;20463;-92
2022/04/23 12:05:31;;;;;;;10.43;9.33;;;14.10;99.90;;;;;;4988907;28;20465;-91
2022/04/23 12:07:59;;;;;;;10.60;9.50;;;14.00;99.90;;;;;;4972056;28;20447;-90
2022/04/23 12:10:26;;;;;;;12.50;10.27;;;14.10;99.90;;;;;;4973510;28;20435;-91
2022/04/23 12:12:52;;;;;;;10.47;9.37;;;14.20;99.90;;;;;;4998377;28;20850;-91
2022/04/23 12:15:21;;;;;;;10.73;9.70;;;14.40;99.90;;;;;;4968821;28;21582;-93
2022/04/23 12:17:54;;;;;;;11.93;10.60;;;14.50;99.90;;;;;;4979539;28;20531;-93
2022/04/23 12:20:26;;;;;;;10.63;9.30;;;14.40;99.90;;;;;;4976878;28;20196;-93
2022/04/23 12:23:03;;;;;;;10.83;9.80;;;14.40;99.90;;;;;;4980325;28;20447;-91
2022/04/23 12:25:30;;;;;;;10.90;9.90;;;14.20;99.90;;;;;;4976575;28;20456;-91
2022/04/23 12:28:02;;;;;;;12.43;11.10;;;14.10;99.90;;;;;;4978000;28;20497;-92
2022/04/23 12:41:39;;;;;;;10.80;9.87;;;15.00;99.90;;;;;;5001552;28;20961;-92
2022/04/23 12:44:18;;;;;;;12.20;10.97;;;15.00;99.90;;;;;;4983373;28;20454;-91
2022/04/23 12:46:58;;;;;;;10.90;10.00;;;15.00;99.90;;;;;;4976079;28;20432;-91
2022/04/23 12:49:48;;;;;;;11.30;10.30;;;15.20;99.90;;;;;;4971880;28;20456;-91
2022/04/23 12:52:31;;;;;;;10.80;9.80;;;15.00;99.90;;;;;;4991159;28;20471;-91
2022/04/23 12:55:21;;;;;;;11.40;10.23;;;15.00;99.90;;;;;;4964398;28;20495;-91
2022/04/23 12:58:06;;;;;;;10.53;9.40;;;15.00;99.90;;;;;;4979174;28;20530;-92
2022/04/23 13:00:36;;;;;;;13.33;11.73;;;14.90;99.90;;;;;;4981731;28;20436;-93
2022/04/23 13:03:30;;;;;;;11.07;10.07;;;14.60;99.90;;;;;;4979278;28;20456;-92
2022/04/23 13:05:55;;;;;;;11.40;10.33;;;14.50;99.90;;;;;;4996899;28;20440;-92
2022/04/23 13:13:49;;;;;;;11.60;10.40;;;14.60;99.90;;;;;;4999099;28;20956;-93
2022/04/23 13:16:15;;;;;;;11.63;10.50;;;14.60;99.90;;;;;;4990119;28;20448;-91
2022/04/23 13:18:41;;;;;;;10.57;9.63;;;14.80;99.90;;;;;;4990812;28;20191;-90
2022/04/23 13:21:09;;;;;;;11.17;10.07;;;15.30;99.90;;;;;;4981305;28;20324;-91
2022/04/23 13:23:39;;;;;;;16.10;11.30;;;15.50;99.90;;;;;;4999219;28;20185;-92
2022/04/23 13:26:29;;;;;;;11.80;10.60;;;15.40;99.90;;;;;;4998089;28;20455;-91
2022/04/23 13:28:56;;;;;;;11.30;10.30;;;15.00;99.70;;;;;;4993937;28;20436;-91